createdAt,value
2023-01-19T07:21:55.262Z,2.06
2023-01-19T07:35:32.641Z,2.31
2023-01-19T07:40:43.148Z,2.19
2023-01-19T07:43:11.406Z,2.25
2023-01-19T07:45:42.038Z,2.25
2023-01-19T07:48:11.634Z,2.19
2023-01-19T07:50:41.481Z,2.19
2023-01-19T07:53:13.046Z,2.19
2023-01-19T07:58:16.318Z,2.19
2023-01-19T08:00:45.137Z,2.31
2023-01-19T08:03:19.621Z,2.38
2023-01-19T08:05:54.019Z,2.31
2023-01-19T08:08:22.823Z,2.25
2023-01-19T08:11:00.662Z,2.25
2023-01-19T08:13:32.456Z,2.31
2023-01-19T08:16:03.099Z,2.38
2023-01-19T08:18:31.927Z,2.31
2023-01-19T08:21:01.468Z,2.38
2023-01-19T08:23:29.922Z,2.38
2023-01-19T08:26:02.190Z,2.38
2023-01-19T08:28:31.237Z,2.38
2023-01-19T08:31:05.330Z,2.25
2023-01-19T08:33:47.062Z,2.38
2023-01-19T08:36:19.931Z,2.31
2023-01-19T08:38:52.609Z,2.19
2023-01-19T08:41:24.394Z,2.38
2023-01-19T08:43:54.744Z,2.25
2023-01-19T08:46:22.791Z,2.25
2023-01-19T08:48:52.580Z,2.44
2023-01-19T08:51:24.349Z,2.44
2023-01-19T08:59:09.873Z,2.38
2023-01-19T09:01:47.137Z,2.44
2023-01-19T09:04:18.155Z,2.38
2023-01-19T09:09:31.757Z,2.38
2023-01-19T09:12:00.036Z,2.38
2023-01-19T09:14:27.513Z,2.56
2023-01-19T09:19:50.251Z,2.44
2023-01-19T09:22:17.593Z,2.56
2023-01-19T09:24:45.176Z,2.56
2023-01-19T09:32:50.559Z,2.69
2023-01-19T09:37:55.395Z,2.69
2023-01-19T09:40:22.736Z,2.69
2023-01-19T09:42:59.802Z,2.88
2023-01-19T09:45:40.301Z,2.88
2023-01-19T09:48:44.546Z,2.88
2023-01-19T10:52:00.016Z,2.75
2023-01-19T10:54:30.818Z,2.81
2023-01-19T11:08:01.884Z,2.94
2023-01-19T11:10:31.078Z,2.75
2023-01-19T11:13:12.774Z,2.94
2023-01-19T11:16:04.657Z,3.00
2023-01-19T11:18:39.849Z,2.94
2023-01-19T11:21:18.530Z,3.00
2023-01-19T11:23:55.707Z,2.69
2023-01-19T11:26:48.524Z,2.94
2023-01-19T11:29:24.357Z,3.06
2023-01-19T11:31:55.772Z,3.06
2023-01-19T11:34:36.663Z,3.06
2023-01-19T11:37:31.612Z,3.06
2023-01-19T11:40:03.321Z,3.00
2023-01-19T11:42:34.043Z,3.06
2023-01-19T11:45:04.338Z,3.06
2023-01-19T11:47:44.552Z,3.06
2023-01-19T11:56:23.515Z,3.25
2023-01-19T11:58:52.566Z,3.13
2023-01-19T12:01:45.380Z,3.19
2023-01-19T12:04:24.059Z,3.19
2023-01-19T12:06:56.788Z,3.19
2023-01-19T12:09:42.979Z,3.13
2023-01-19T12:12:42.651Z,3.19
2023-01-19T12:15:30.490Z,3.19
2023-01-19T12:18:04.020Z,3.00
2023-01-19T12:20:52.983Z,3.00
2023-01-19T12:23:47.045Z,2.88
2023-01-19T12:26:22.250Z,2.81
2023-01-19T13:40:48.601Z,2.13
2023-01-19T13:46:21.043Z,1.94
2023-01-19T13:52:41.308Z,1.88
2023-01-19T13:58:32.889Z,1.75
